sensor_id;sensor_type;location;lat;lon;timestamp;P1;durP1;ratioP1;P2;durP2;ratioP2
57778;SDS011;43608;49.486;9.640;2023-03-01T00:00:00;10.48;;;7.30;;
57778;SDS011;43608;49.486;9.640;2023-03-01T00:00:30;10.32;;;7.50;;
57778;SDS011;43608;49.486;9.640;2023-03-01T00:01:04;9.40;;;6.93;;
57778;SDS011;43608;49.486;9.640;2023-03-01T00:01:46;9.75;;;7.05;;
57778;SDS011;43608;49.486;9.640;2023-03-01T00:02:17;9.93;;;7.28;;
57778;SDS011;43608;49.486;9.640;2023-03-01T00:02:47;10.25;;;7.13;;
57778;SDS011;43608;49.486;9.640;2023-03-01T00:03:18;10.30;;;7.00;;
57778;SDS011;43608;49.486;9.640;2023-03-01T00:03:48;9.13;;;6.97;;
57778;SDS011;43608;49.486;9.640;2023-03-01T00:04:20;10.07;;;7.07;;
57778;SDS011;43608;49.486;9.640;2023-03-01T00:04:50;10.30;;;7.38;;
57778;SDS011;43608;49.486;9.640;2023-03-01T00:05:21;11.50;;;7.80;;
57778;SDS011;43608;49.486;9.640;2023-03-01T00:05:51;9.52;;;7.20;;
57778;SDS011;43608;49.486;9.640;2023-03-01T00:06:22;11.48;;;7.95;;
57778;SDS011;43608;49.486;9.640;2023-03-01T00:06:53;10.23;;;7.10;;
57778;SDS011;43608;49.486;9.640;2023-03-01T00:07:23;11.77;;;7.90;;
57778;SDS011;43608;49.486;9.640;2023-03-01T00:07:54;10.00;;;7.35;;
57778;SDS011;43608;49.486;9.640;2023-03-01T00:08:24;10.60;;;7.63;;
57778;SDS011;43608;49.486;9.640;2023-03-01T00:08:55;11.27;;;7.90;;
57778;SDS011;43608;49.486;9.640;2023-03-01T00:09:26;9.65;;;7.35;;
57778;SDS011;43608;49.486;9.640;2023-03-01T00:09:56;11.57;;;7.63;;
57778;SDS011;43608;49.486;9.640;2023-03-01T00:10:26;10.13;;;7.50;;
57778;SDS011;43608;49.486;9.640;2023-03-01T00:11:39;10.35;;;7.68;;
57778;SDS011;43608;49.486;9.640;2023-03-01T00:11:51;10.55;;;7.32;;
57778;SDS011;43608;49.486;9.640;2023-03-01T00:12:22;10.93;;;7.32;;
57778;SDS011;43608;49.486;9.640;2023-03-01T00:12:52;10.25;;;7.18;;
57778;SDS011;43608;49.486;9.640;2023-03-01T00:13:23;9.82;;;7.40;;
57778;SDS011;43608;49.486;9.640;2023-03-01T00:13:54;11.57;;;7.93;;
57778;SDS011;43608;49.486;9.640;2023-03-01T00:14:26;11.02;;;7.18;;
57778;SDS011;43608;49.486;9.640;2023-03-01T00:14:57;11.30;;;7.38;;
57778;SDS011;43608;49.486;9.640;2023-03-01T00:15:27;9.15;;;6.88;;
57778;SDS011;43608;49.486;9.640;2023-03-01T00:15:57;10.13;;;7.20;;
57778;SDS011;43608;49.486;9.640;2023-03-01T00:16:29;10.10;;;7.50;;
57778;SDS011;43608;49.486;9.640;2023-03-01T00:17:04;9.68;;;7.30;;
57778;SDS011;43608;49.486;9.640;2023-03-01T00:17:35;11.00;;;7.45;;
57778;SDS011;43608;49.486;9.640;2023-03-01T00:18:05;9.98;;;7.60;;
57778;SDS011;43608;49.486;9.640;2023-03-01T00:18:36;10.15;;;7.50;;
57778;SDS011;43608;49.486;9.640;2023-03-01T00:19:08;9.90;;;6.90;;
57778;SDS011;43608;49.486;9.640;2023-03-01T00:19:42;9.73;;;7.15;;
57778;SDS011;43608;49.486;9.640;2023-03-01T00:20:12;9.18;;;6.90;;
57778;SDS011;43608;49.486;9.640;2023-03-01T00:20:48;9.48;;;6.93;;
57778;SDS011;43608;49.486;9.640;2023-03-01T00:21:20;10.52;;;7.30;;
57778;SDS011;43608;49.486;9.640;2023-03-01T00:21:52;9.75;;;7.00;;
57778;SDS011;43608;49.486;9.640;2023-03-01T00:22:22;10.40;;;7.13;;
57778;SDS011;43608;49.486;9.640;2023-03-01T00:22:53;11.50;;;7.10;;
57778;SDS011;43608;49.486;9.640;2023-03-01T00:23:23;10.45;;;7.10;;
57778;SDS011;43608;49.486;9.640;2023-03-01T00:23:54;9.77;;;7.10;;
57778;SDS011;43608;49.486;9.640;2023-03-01T00:24:25;10.52;;;7.13;;
57778;SDS011;43608;49.486;9.640;2023-03-01T00:24:56;10.90;;;7.38;;
57778;SDS011;43608;49.486;9.640;2023-03-01T00:25:26;11.00;;;7.13;;
57778;SDS011;43608;49.486;9.640;2023-03-01T00:25:56;10.18;;;7.22;;
57778;SDS011;43608;49.486;9.640;2023-03-01T00:26:27;8.90;;;7.05;;
57778;SDS011;43608;49.486;9.640;2023-03-01T00:26:58;10.50;;;7.13;;
57778;SDS011;43608;49.486;9.640;2023-03-01T00:27:28;9.30;;;6.82;;
57778;SDS011;43608;49.486;9.640;2023-03-01T00:27:59;10.85;;;7.30;;
57778;SDS011;43608;49.486;9.640;2023-03-01T00:28:29;10.55;;;7.22;;
57778;SDS011;43608;49.486;9.640;2023-03-01T00:29:00;10.68;;;6.93;;
57778;SDS011;43608;49.486;9.640;2023-03-01T00:29:30;10.40;;;7.18;;
57778;SDS011;43608;49.486;9.640;2023-03-01T00:30:00;9.15;;;6.93;;
57778;SDS011;43608;49.486;9.640;2023-03-01T00:30:31;10.13;;;7.00;;
57778;SDS011;43608;49.486;9.640;2023-03-01T00:31:06;9.65;;;7.25;;
57778;SDS011;43608;49.486;9.640;2023-03-01T00:31:38;9.80;;;6.82;;
57778;SDS011;43608;49.486;9.640;2023-03-01T00:32:08;10.00;;;7.13;;
57778;SDS011;43608;49.486;9.640;2023-03-01T00:32:39;10.13;;;7.15;;
57778;SDS011;43608;49.486;9.640;2023-03-01T00:33:09;9.95;;;6.78;;
57778;SDS011;43608;49.486;9.640;2023-03-01T00:33:40;12.20;;;7.65;;
57778;SDS011;43608;49.486;9.640;2023-03-01T00:34:11;12.18;;;8.30;;
57778;SDS011;43608;49.486;9.640;2023-03-01T00:34:41;15.80;;;9.75;;
57778;SDS011;43608;49.486;9.640;2023-03-01T00:35:11;14.05;;;9.05;;
57778;SDS011;43608;49.486;9.640;2023-03-01T00:35:42;14.52;;;9.65;;
57778;SDS011;43608;49.486;9.640;2023-03-01T00:36:13;13.68;;;9.13;;
57778;SDS011;43608;49.486;9.640;2023-03-01T00:36:44;14.63;;;9.52;;
57778;SDS011;43608;49.486;9.640;2023-03-01T00:37:15;14.98;;;9.88;;
57778;SDS011;43608;49.486;9.640;2023-03-01T00:37:45;14.68;;;9.52;;
57778;SDS011;43608;49.486;9.640;2023-03-01T00:38:16;13.95;;;9.38;;
57778;SDS011;43608;49.486;9.640;2023-03-01T00:38:46;14.25;;;9.07;;
57778;SDS011;43608;49.486;9.640;2023-03-01T00:39:17;14.02;;;9.15;;
57778;SDS011;43608;49.486;9.640;2023-03-01T00:39:47;14.93;;;9.40;;
57778;SDS011;43608;49.486;9.640;2023-03-01T00:40:18;14.20;;;8.73;;
57778;SDS011;43608;49.486;9.640;2023-03-01T00:40:48;14.32;;;8.73;;
57778;SDS011;43608;49.486;9.640;2023-03-01T00:41:19;13.05;;;8.50;;
57778;SDS011;43608;49.486;9.640;2023-03-01T00:41:50;12.90;;;8.80;;
57778;SDS011;43608;49.486;9.640;2023-03-01T00:42:20;12.63;;;8.43;;
57778;SDS011;43608;49.486;9.640;2023-03-01T00:42:52;12.48;;;8.50;;
57778;SDS011;43608;49.486;9.640;2023-03-01T00:43:22;13.07;;;8.55;;
57778;SDS011;43608;49.486;9.640;2023-03-01T00:43:52;12.05;;;8.63;;
57778;SDS011;43608;49.486;9.640;2023-03-01T00:44:23;12.77;;;8.45;;
57778;SDS011;43608;49.486;9.640;2023-03-01T00:44:53;14.07;;;8.80;;
57778;SDS011;43608;49.486;9.640;2023-03-01T00:45:24;12.35;;;8.18;;
57778;SDS011;43608;49.486;9.640;2023-03-01T00:45:55;12.52;;;8.50;;
57778;SDS011;43608;49.486;9.640;2023-03-01T00:46:26;13.82;;;8.95;;
57778;SDS011;43608;49.486;9.640;2023-03-01T00:46:57;12.30;;;8.60;;
57778;SDS011;43608;49.486;9.640;2023-03-01T00:47:29;13.05;;;8.85;;
57778;SDS011;43608;49.486;9.640;2023-03-01T00:47:59;14.13;;;9.25;;
57778;SDS011;43608;49.486;9.640;2023-03-01T00:48:30;13.57;;;9.27;;
57778;SDS011;43608;49.486;9.640;2023-03-01T00:49:00;13.32;;;8.85;;
57778;SDS011;43608;49.486;9.640;2023-03-01T00:49:32;13.38;;;9.13;;
57778;SDS011;43608;49.486;9.640;2023-03-01T00:50:02;12.80;;;8.80;;
57778;SDS011;43608;49.486;9.640;2023-03-01T00:50:33;13.57;;;8.68;;
57778;SDS011;43608;49.486;9.640;2023-03-01T00:51:07;15.07;;;9.00;;
57778;SDS011;43608;49.486;9.640;2023-03-01T00:51:39;13.80;;;8.55;;
57778;SDS011;43608;49.486;9.640;2023-03-01T00:52:11;12.18;;;8.63;;
57778;SDS011;43608;49.486;9.640;2023-03-01T00:52:41;11.98;;;8.45;;
57778;SDS011;43608;49.486;9.640;2023-03-01T00:53:12;12.38;;;8.35;;
57778;SDS011;43608;49.486;9.640;2023-03-01T00:53:42;12.68;;;8.30;;
57778;SDS011;43608;49.486;9.640;2023-03-01T00:54:13;12.90;;;8.20;;
57778;SDS011;43608;49.486;9.640;2023-03-01T00:54:44;11.63;;;8.00;;
57778;SDS011;43608;49.486;9.640;2023-03-01T00:55:14;12.35;;;8.15;;
57778;SDS011;43608;49.486;9.640;2023-03-01T00:55:44;11.27;;;7.75;;
57778;SDS011;43608;49.486;9.640;2023-03-01T00:56:15;11.45;;;7.65;;
57778;SDS011;43608;49.486;9.640;2023-03-01T00:56:45;11.60;;;8.00;;
57778;SDS011;43608;49.486;9.640;2023-03-01T00:57:16;11.20;;;7.60;;
57778;SDS011;43608;49.486;9.640;2023-03-01T00:57:46;11.30;;;7.85;;
57778;SDS011;43608;49.486;9.640;2023-03-01T00:58:16;11.25;;;8.00;;
57778;SDS011;43608;49.486;9.640;2023-03-01T00:58:47;10.95;;;7.85;;
57778;SDS011;43608;49.486;9.640;2023-03-01T00:59:17;10.50;;;7.32;;
57778;SDS011;43608;49.486;9.640;2023-03-01T00:59:47;11.93;;;8.15;;
57778;SDS011;43608;49.486;9.640;2023-03-01T01:00:18;10.43;;;7.40;;
57778;SDS011;43608;49.486;9.640;2023-03-01T01:00:49;10.40;;;7.53;;
57778;SDS011;43608;49.486;9.640;2023-03-01T01:01:20;10.73;;;7.38;;
57778;SDS011;43608;49.486;9.640;2023-03-01T01:01:53;11.10;;;7.45;;
57778;SDS011;43608;49.486;9.640;2023-03-01T01:02:24;10.15;;;7.22;;
57778;SDS011;43608;49.486;9.640;2023-03-01T01:02:54;11.70;;;7.72;;
57778;SDS011;43608;49.486;9.640;2023-03-01T01:03:25;10.60;;;7.50;;
57778;SDS011;43608;49.486;9.640;2023-03-01T01:03:57;10.05;;;7.47;;
57778;SDS011;43608;49.486;9.640;2023-03-01T01:04:29;10.13;;;7.25;;
57778;SDS011;43608;49.486;9.640;2023-03-01T01:04:59;10.05;;;7.35;;
57778;SDS011;43608;49.486;9.640;2023-03-01T01:05:30;10.02;;;6.95;;
57778;SDS011;43608;49.486;9.640;2023-03-01T01:06:00;10.27;;;7.15;;
57778;SDS011;43608;49.486;9.640;2023-03-01T01:06:42;9.95;;;7.57;;
57778;SDS011;43608;49.486;9.640;2023-03-01T01:07:15;10.18;;;7.15;;
57778;SDS011;43608;49.486;9.640;2023-03-01T01:07:46;10.88;;;7.47;;
57778;SDS011;43608;49.486;9.640;2023-03-01T01:08:17;9.65;;;7.10;;
57778;SDS011;43608;49.486;9.640;2023-03-01T01:08:48;10.10;;;7.25;;
57778;SDS011;43608;49.486;9.640;2023-03-01T01:09:19;11.25;;;7.65;;
57778;SDS011;43608;49.486;9.640;2023-03-01T01:09:49;10.27;;;7.30;;
57778;SDS011;43608;49.486;9.640;2023-03-01T01:10:20;10.38;;;7.28;;
57778;SDS011;43608;49.486;9.640;2023-03-01T01:10:50;9.88;;;7.20;;
57778;SDS011;43608;49.486;9.640;2023-03-01T01:11:21;10.27;;;7.45;;
57778;SDS011;43608;49.486;9.640;2023-03-01T01:11:53;9.40;;;7.10;;
57778;SDS011;43608;49.486;9.640;2023-03-01T01:12:23;10.75;;;7.57;;
57778;SDS011;43608;49.486;9.640;2023-03-01T01:12:54;10.40;;;6.95;;
57778;SDS011;43608;49.486;9.640;2023-03-01T01:13:24;10.15;;;6.90;;
57778;SDS011;43608;49.486;9.640;2023-03-01T01:13:55;9.38;;;7.00;;
57778;SDS011;43608;49.486;9.640;2023-03-01T01:14:25;10.02;;;7.20;;
57778;SDS011;43608;49.486;9.640;2023-03-01T01:14:56;9.77;;;7.07;;
57778;SDS011;43608;49.486;9.640;2023-03-01T01:15:26;10.68;;;7.32;;
57778;SDS011;43608;49.486;9.640;2023-03-01T01:16:00;11.80;;;7.80;;
57778;SDS011;43608;49.486;9.640;2023-03-01T01:16:31;10.40;;;7.28;;
57778;SDS011;43608;49.486;9.640;2023-03-01T01:17:01;9.15;;;6.75;;
57778;SDS011;43608;49.486;9.640;2023-03-01T01:17:32;10.10;;;6.90;;
57778;SDS011;43608;49.486;9.640;2023-03-01T01:18:02;10.32;;;7.00;;
57778;SDS011;43608;49.486;9.640;2023-03-01T01:18:33;10.40;;;7.40;;
57778;SDS011;43608;49.486;9.640;2023-03-01T01:19:04;10.13;;;7.15;;
57778;SDS011;43608;49.486;9.640;2023-03-01T01:19:34;9.63;;;7.22;;
57778;SDS011;43608;49.486;9.640;2023-03-01T01:20:05;10.80;;;7.60;;
57778;SDS011;43608;49.486;9.640;2023-03-01T01:20:36;9.68;;;7.40;;
57778;SDS011;43608;49.486;9.640;2023-03-01T01:21:08;10.75;;;7.80;;
57778;SDS011;43608;49.486;9.640;2023-03-01T01:21:43;10.35;;;7.40;;
57778;SDS011;43608;49.486;9.640;2023-03-01T01:22:14;9.77;;;7.25;;
57778;SDS011;43608;49.486;9.640;2023-03-01T01:22:45;9.52;;;7.22;;
57778;SDS011;43608;49.486;9.640;2023-03-01T01:23:15;10.25;;;7.03;;
57778;SDS011;43608;49.486;9.640;2023-03-01T01:23:45;9.90;;;7.25;;
57778;SDS011;43608;49.486;9.640;2023-03-01T01:24:17;10.60;;;7.38;;
57778;SDS011;43608;49.486;9.640;2023-03-01T01:24:47;9.82;;;7.00;;
57778;SDS011;43608;49.486;9.640;2023-03-01T01:25:18;9.98;;;7.07;;
57778;SDS011;43608;49.486;9.640;2023-03-01T01:25:49;9.32;;;7.28;;
57778;SDS011;43608;49.486;9.640;2023-03-01T01:26:20;9.65;;;6.90;;
57778;SDS011;43608;49.486;9.640;2023-03-01T01:26:55;9.93;;;7.40;;
57778;SDS011;43608;49.486;9.640;2023-03-01T01:27:25;9.48;;;7.20;;
57778;SDS011;43608;49.486;9.640;2023-03-01T01:27:56;9.43;;;6.55;;
57778;SDS011;43608;49.486;9.640;2023-03-01T01:28:26;9.30;;;6.90;;
57778;SDS011;43608;49.486;9.640;2023-03-01T01:28:57;9.38;;;7.13;;
57778;SDS011;43608;49.486;9.640;2023-03-01T01:29:27;11.13;;;7.32;;
57778;SDS011;43608;49.486;9.640;2023-03-01T01:29:58;10.50;;;7.13;;
57778;SDS011;43608;49.486;9.640;2023-03-01T01:30:28;11.20;;;7.68;;
57778;SDS011;43608;49.486;9.640;2023-03-01T01:30:58;10.50;;;7.35;;
57778;SDS011;43608;49.486;9.640;2023-03-01T01:31:29;10.05;;;7.30;;
57778;SDS011;43608;49.486;9.640;2023-03-01T01:32:01;10.07;;;7.55;;
57778;SDS011;43608;49.486;9.640;2023-03-01T01:32:31;9.77;;;7.00;;
57778;SDS011;43608;49.486;9.640;2023-03-01T01:33:01;9.98;;;7.45;;
57778;SDS011;43608;49.486;9.640;2023-03-01T01:33:32;11.07;;;7.35;;
57778;SDS011;43608;49.486;9.640;2023-03-01T01:34:03;9.18;;;7.20;;
57778;SDS011;43608;49.486;9.640;2023-03-01T01:34:35;10.43;;;7.57;;
57778;SDS011;43608;49.486;9.640;2023-03-01T01:35:05;10.20;;;7.43;;
57778;SDS011;43608;49.486;9.640;2023-03-01T01:35:36;12.15;;;7.43;;
57778;SDS011;43608;49.486;9.640;2023-03-01T01:36:06;10.30;;;7.28;;
57778;SDS011;43608;49.486;9.640;2023-03-01T01:36:38;9.20;;;7.28;;
57778;SDS011;43608;49.486;9.640;2023-03-01T01:37:08;10.07;;;7.30;;
57778;SDS011;43608;49.486;9.640;2023-03-01T01:37:38;11.40;;;8.30;;
57778;SDS011;43608;49.486;9.640;2023-03-01T01:38:09;11.07;;;7.40;;
57778;SDS011;43608;49.486;9.640;2023-03-01T01:38:39;10.15;;;7.38;;
57778;SDS011;43608;49.486;9.640;2023-03-01T01:39:10;9.70;;;7.30;;
57778;SDS011;43608;49.486;9.640;2023-03-01T01:39:43;10.95;;;7.40;;
57778;SDS011;43608;49.486;9.640;2023-03-01T01:40:13;10.35;;;7.43;;
57778;SDS011;43608;49.486;9.640;2023-03-01T01:40:44;9.38;;;6.95;;
57778;SDS011;43608;49.486;9.640;2023-03-01T01:41:15;9.23;;;6.97;;
57778;SDS011;43608;49.486;9.640;2023-03-01T01:41:47;9.77;;;6.75;;
57778;SDS011;43608;49.486;9.640;2023-03-01T01:42:17;10.80;;;7.97;;
57778;SDS011;43608;49.486;9.640;2023-03-01T01:42:48;9.50;;;7.20;;
57778;SDS011;43608;49.486;9.640;2023-03-01T01:44:45;10.73;;;7.10;;
57778;SDS011;43608;49.486;9.640;2023-03-01T01:45:31;9.57;;;7.15;;
57778;SDS011;43608;49.486;9.640;2023-03-01T01:46:07;10.25;;;7.25;;
57778;SDS011;43608;49.486;9.640;2023-03-01T01:46:50;9.00;;;6.78;;
57778;SDS011;43608;49.486;9.640;2023-03-01T01:47:28;9.98;;;6.80;;
57778;SDS011;43608;49.486;9.640;2023-03-01T01:48:00;9.88;;;6.90;;
57778;SDS011;43608;49.486;9.640;2023-03-01T01:48:41;9.98;;;6.90;;
57778;SDS011;43608;49.486;9.640;2023-03-01T01:49:49;9.57;;;6.82;;
57778;SDS011;43608;49.486;9.640;2023-03-01T01:50:15;10.52;;;6.95;;
57778;SDS011;43608;49.486;9.640;2023-03-01T01:50:54;10.18;;;7.22;;
57778;SDS011;43608;49.486;9.640;2023-03-01T01:51:30;11.02;;;7.18;;
57778;SDS011;43608;49.486;9.640;2023-03-01T01:52:54;11.13;;;7.47;;
57778;SDS011;43608;49.486;9.640;2023-03-01T01:53:24;10.25;;;7.15;;
57778;SDS011;43608;49.486;9.640;2023-03-01T01:53:57;10.10;;;7.30;;
57778;SDS011;43608;49.486;9.640;2023-03-01T01:54:41;10.55;;;7.82;;
57778;SDS011;43608;49.486;9.640;2023-03-01T01:55:16;10.52;;;7.20;;
57778;SDS011;43608;49.486;9.640;2023-03-01T01:55:52;9.88;;;7.00;;
57778;SDS011;43608;49.486;9.640;2023-03-01T01:56:27;10.80;;;7.45;;
57778;SDS011;43608;49.486;9.640;2023-03-01T01:57:00;11.45;;;7.45;;
57778;SDS011;43608;49.486;9.640;2023-03-01T01:58:15;9.40;;;6.90;;
57778;SDS011;43608;49.486;9.640;2023-03-01T01:58:49;10.55;;;7.50;;
57778;SDS011;43608;49.486;9.640;2023-03-01T01:59:20;10.68;;;7.43;;
57778;SDS011;43608;49.486;9.640;2023-03-01T01:59:54;11.73;;;7.93;;
57778;SDS011;43608;49.486;9.640;2023-03-01T02:00:30;10.00;;;7.15;;
57778;SDS011;43608;49.486;9.640;2023-03-01T02:01:00;10.63;;;7.68;;
57778;SDS011;43608;49.486;9.640;2023-03-01T02:01:31;10.65;;;7.65;;
57778;SDS011;43608;49.486;9.640;2023-03-01T02:02:02;10.85;;;7.60;;
57778;SDS011;43608;49.486;9.640;2023-03-01T02:02:34;10.52;;;7.65;;
57778;SDS011;43608;49.486;9.640;2023-03-01T02:03:07;10.90;;;7.63;;
57778;SDS011;43608;49.486;9.640;2023-03-01T02:03:42;11.77;;;7.75;;
57778;SDS011;43608;49.486;9.640;2023-03-01T02:04:14;11.10;;;7.80;;
57778;SDS011;43608;49.486;9.640;2023-03-01T02:04:45;10.65;;;7.30;;
57778;SDS011;43608;49.486;9.640;2023-03-01T02:06:36;11.52;;;7.50;;
57778;SDS011;43608;49.486;9.640;2023-03-01T02:07:16;10.35;;;7.30;;
57778;SDS011;43608;49.486;9.640;2023-03-01T02:07:49;10.20;;;7.15;;
57778;SDS011;43608;49.486;9.640;2023-03-01T02:08:20;10.65;;;7.80;;
57778;SDS011;43608;49.486;9.640;2023-03-01T02:08:52;10.68;;;7.45;;
57778;SDS011;43608;49.486;9.640;2023-03-01T02:09:23;10.88;;;7.80;;
57778;SDS011;43608;49.486;9.640;2023-03-01T02:09:54;12.02;;;7.30;;
57778;SDS011;43608;49.486;9.640;2023-03-01T02:10:25;9.77;;;7.20;;
57778;SDS011;43608;49.486;9.640;2023-03-01T02:10:58;11.13;;;7.60;;
57778;SDS011;43608;49.486;9.640;2023-03-01T02:11:30;10.15;;;7.30;;
57778;SDS011;43608;49.486;9.640;2023-03-01T02:12:02;10.05;;;7.25;;
57778;SDS011;43608;49.486;9.640;2023-03-01T02:12:34;10.23;;;7.45;;
57778;SDS011;43608;49.486;9.640;2023-03-01T02:13:07;10.40;;;7.30;;
57778;SDS011;43608;49.486;9.640;2023-03-01T02:13:38;11.13;;;7.80;;
57778;SDS011;43608;49.486;9.640;2023-03-01T02:14:09;10.55;;;7.82;;
57778;SDS011;43608;49.486;9.640;2023-03-01T02:14:39;10.52;;;7.68;;
57778;SDS011;43608;49.486;9.640;2023-03-01T02:15:10;9.82;;;7.13;;
57778;SDS011;43608;49.486;9.640;2023-03-01T02:15:40;10.00;;;7.30;;
57778;SDS011;43608;49.486;9.640;2023-03-01T02:16:14;9.55;;;7.18;;
57778;SDS011;43608;49.486;9.640;2023-03-01T02:16:46;10.27;;;7.22;;
57778;SDS011;43608;49.486;9.640;2023-03-01T02:17:17;9.07;;;7.20;;
57778;SDS011;43608;49.486;9.640;2023-03-01T02:17:49;9.60;;;7.20;;
57778;SDS011;43608;49.486;9.640;2023-03-01T02:18:21;10.02;;;7.32;;
57778;SDS011;43608;49.486;9.640;2023-03-01T02:18:53;10.70;;;7.32;;
57778;SDS011;43608;49.486;9.640;2023-03-01T02:22:00;9.77;;;6.80;;
57778;SDS011;43608;49.486;9.640;2023-03-01T02:22:43;10.02;;;7.20;;
57778;SDS011;43608;49.486;9.640;2023-03-01T02:23:16;10.82;;;7.70;;
57778;SDS011;43608;49.486;9.640;2023-03-01T02:23:46;11.02;;;7.43;;
57778;SDS011;43608;49.486;9.640;2023-03-01T02:25:46;9.75;;;6.97;;
57778;SDS011;43608;49.486;9.640;2023-03-01T02:26:40;11.15;;;7.45;;
57778;SDS011;43608;49.486;9.640;2023-03-01T02:27:15;10.32;;;7.05;;
57778;SDS011;43608;49.486;9.640;2023-03-01T02:27:59;9.90;;;6.97;;
57778;SDS011;43608;49.486;9.640;2023-03-01T02:28:45;11.93;;;7.35;;
57778;SDS011;43608;49.486;9.640;2023-03-01T02:29:16;10.82;;;7.15;;
57778;SDS011;43608;49.486;9.640;2023-03-01T02:29:47;11.15;;;7.60;;
57778;SDS011;43608;49.486;9.640;2023-03-01T02:30:18;11.55;;;7.72;;
57778;SDS011;43608;49.486;9.640;2023-03-01T02:30:50;10.60;;;7.50;;
57778;SDS011;43608;49.486;9.640;2023-03-01T02:31:40;11.48;;;7.53;;
57778;SDS011;43608;49.486;9.640;2023-03-01T02:32:13;11.20;;;7.43;;
57778;SDS011;43608;49.486;9.640;2023-03-01T02:32:45;10.13;;;7.22;;
57778;SDS011;43608;49.486;9.640;2023-03-01T02:33:16;9.40;;;6.93;;
57778;SDS011;43608;49.486;9.640;2023-03-01T02:33:46;9.40;;;6.82;;
57778;SDS011;43608;49.486;9.640;2023-03-01T02:34:20;11.02;;;7.35;;
57778;SDS011;43608;49.486;9.640;2023-03-01T02:34:53;9.88;;;7.43;;
57778;SDS011;43608;49.486;9.640;2023-03-01T02:35:25;11.38;;;7.40;;
57778;SDS011;43608;49.486;9.640;2023-03-01T02:35:55;10.25;;;7.25;;
57778;SDS011;43608;49.486;9.640;2023-03-01T02:36:28;9.65;;;7.00;;
57778;SDS011;43608;49.486;9.640;2023-03-01T02:37:06;9.85;;;6.68;;
57778;SDS011;43608;49.486;9.640;2023-03-01T02:37:42;9.60;;;7.03;;
57778;SDS011;43608;49.486;9.640;2023-03-01T02:38:14;10.90;;;7.25;;
57778;SDS011;43608;49.486;9.640;2023-03-01T02:38:44;11.07;;;7.85;;
57778;SDS011;43608;49.486;9.640;2023-03-01T02:39:26;9.30;;;7.13;;
57778;SDS011;43608;49.486;9.640;2023-03-01T02:40:03;10.27;;;7.05;;
57778;SDS011;43608;49.486;9.640;2023-03-01T02:40:36;10.27;;;6.97;;
57778;SDS011;43608;49.486;9.640;2023-03-01T02:41:08;10.63;;;7.22;;
57778;SDS011;43608;49.486;9.640;2023-03-01T02:41:42;10.93;;;7.43;;
57778;SDS011;43608;49.486;9.640;2023-03-01T02:42:21;10.93;;;7.60;;
57778;SDS011;43608;49.486;9.640;2023-03-01T02:42:56;10.57;;;7.55;;
57778;SDS011;43608;49.486;9.640;2023-03-01T02:43:31;10.93;;;7.18;;
57778;SDS011;43608;49.486;9.640;2023-03-01T02:44:03;9.57;;;7.35;;
57778;SDS011;43608;49.486;9.640;2023-03-01T02:44:34;10.60;;;7.55;;
57778;SDS011;43608;49.486;9.640;2023-03-01T02:45:05;10.02;;;7.65;;
57778;SDS011;43608;49.486;9.640;2023-03-01T02:45:35;11.48;;;8.18;;
57778;SDS011;43608;49.486;9.640;2023-03-01T02:46:24;10.90;;;7.75;;
57778;SDS011;43608;49.486;9.640;2023-03-01T02:46:56;10.45;;;7.15;;
57778;SDS011;43608;49.486;9.640;2023-03-01T02:47:28;10.52;;;7.07;;
57778;SDS011;43608;49.486;9.640;2023-03-01T02:47:59;12.18;;;7.85;;
57778;SDS011;43608;49.486;9.640;2023-03-01T02:49:32;10.70;;;6.82;;
57778;SDS011;43608;49.486;9.640;2023-03-01T02:50:18;10.48;;;7.47;;
57778;SDS011;43608;49.486;9.640;2023-03-01T02:51:05;10.43;;;7.10;;
57778;SDS011;43608;49.486;9.640;2023-03-01T02:52:45;10.27;;;7.05;;
57778;SDS011;43608;49.486;9.640;2023-03-01T02:53:31;11.80;;;7.65;;
57778;SDS011;43608;49.486;9.640;2023-03-01T02:54:23;10.82;;;7.18;;
57778;SDS011;43608;49.486;9.640;2023-03-01T02:55:30;10.85;;;7.75;;
57778;SDS011;43608;49.486;9.640;2023-03-01T02:56:00;10.95;;;7.43;;
57778;SDS011;43608;49.486;9.640;2023-03-01T02:56:31;11.20;;;7.20;;
57778;SDS011;43608;49.486;9.640;2023-03-01T02:57:02;11.60;;;7.70;;
57778;SDS011;43608;49.486;9.640;2023-03-01T02:57:33;10.98;;;7.85;;
57778;SDS011;43608;49.486;9.640;2023-03-01T02:58:05;9.50;;;7.25;;
57778;SDS011;43608;49.486;9.640;2023-03-01T02:58:36;10.50;;;7.50;;
57778;SDS011;43608;49.486;9.640;2023-03-01T02:59:16;10.07;;;7.18;;
57778;SDS011;43608;49.486;9.640;2023-03-01T02:59:49;11.48;;;7.78;;
57778;SDS011;43608;49.486;9.640;2023-03-01T03:00:23;10.50;;;7.10;;
57778;SDS011;43608;49.486;9.640;2023-03-01T03:00:57;10.00;;;7.10;;
57778;SDS011;43608;49.486;9.640;2023-03-01T03:01:29;9.90;;;7.18;;
57778;SDS011;43608;49.486;9.640;2023-03-01T03:02:06;9.73;;;7.45;;
57778;SDS011;43608;49.486;9.640;2023-03-01T03:02:37;10.65;;;7.22;;
57778;SDS011;43608;49.486;9.640;2023-03-01T03:03:08;10.18;;;7.38;;
57778;SDS011;43608;49.486;9.640;2023-03-01T03:03:39;9.98;;;7.38;;
57778;SDS011;43608;49.486;9.640;2023-03-01T03:04:11;10.65;;;7.40;;
57778;SDS011;43608;49.486;9.640;2023-03-01T03:04:47;10.25;;;7.05;;
57778;SDS011;43608;49.486;9.640;2023-03-01T03:05:19;10.57;;;7.10;;
57778;SDS011;43608;49.486;9.640;2023-03-01T03:05:51;10.05;;;7.13;;
57778;SDS011;43608;49.486;9.640;2023-03-01T03:06:21;10.23;;;7.80;;
57778;SDS011;43608;49.486;9.640;2023-03-01T03:06:52;9.25;;;7.00;;
57778;SDS011;43608;49.486;9.640;2023-03-01T03:07:22;10.00;;;7.13;;
57778;SDS011;43608;49.486;9.640;2023-03-01T03:07:52;12.52;;;7.60;;
57778;SDS011;43608;49.486;9.640;2023-03-01T03:08:23;10.48;;;7.25;;
57778;SDS011;43608;49.486;9.640;2023-03-01T03:08:53;9.68;;;7.00;;
57778;SDS011;43608;49.486;9.640;2023-03-01T03:09:24;10.93;;;7.63;;
57778;SDS011;43608;49.486;9.640;2023-03-01T03:09:54;11.45;;;7.68;;
57778;SDS011;43608;49.486;9.640;2023-03-01T03:10:29;10.90;;;7.55;;
57778;SDS011;43608;49.486;9.640;2023-03-01T03:11:04;10.52;;;7.25;;
57778;SDS011;43608;49.486;9.640;2023-03-01T03:11:35;10.52;;;6.90;;
57778;SDS011;43608;49.486;9.640;2023-03-01T03:12:06;11.15;;;7.50;;
57778;SDS011;43608;49.486;9.640;2023-03-01T03:12:37;10.50;;;7.10;;
57778;SDS011;43608;49.486;9.640;2023-03-01T03:13:12;10.65;;;7.65;;
57778;SDS011;43608;49.486;9.640;2023-03-01T03:13:44;9.90;;;7.30;;
57778;SDS011;43608;49.486;9.640;2023-03-01T03:14:18;10.57;;;7.30;;
57778;SDS011;43608;49.486;9.640;2023-03-01T03:14:49;11.30;;;7.40;;
57778;SDS011;43608;49.486;9.640;2023-03-01T03:15:19;9.88;;;7.40;;
57778;SDS011;43608;49.486;9.640;2023-03-01T03:15:50;10.25;;;7.30;;
57778;SDS011;43608;49.486;9.640;2023-03-01T03:16:21;11.25;;;7.68;;
57778;SDS011;43608;49.486;9.640;2023-03-01T03:16:52;11.85;;;7.72;;
57778;SDS011;43608;49.486;9.640;2023-03-01T03:17:22;10.18;;;7.60;;
57778;SDS011;43608;49.486;9.640;2023-03-01T03:17:53;10.43;;;7.30;;
57778;SDS011;43608;49.486;9.640;2023-03-01T03:18:24;11.00;;;7.55;;
57778;SDS011;43608;49.486;9.640;2023-03-01T03:18:55;10.13;;;7.28;;
57778;SDS011;43608;49.486;9.640;2023-03-01T03:19:35;10.77;;;7.25;;
57778;SDS011;43608;49.486;9.640;2023-03-01T03:20:05;11.20;;;7.90;;
57778;SDS011;43608;49.486;9.640;2023-03-01T03:20:42;11.15;;;7.63;;
57778;SDS011;43608;49.486;9.640;2023-03-01T03:21:14;11.13;;;7.53;;
57778;SDS011;43608;49.486;9.640;2023-03-01T03:21:45;9.95;;;7.15;;
57778;SDS011;43608;49.486;9.640;2023-03-01T03:22:15;11.20;;;7.80;;
57778;SDS011;43608;49.486;9.640;2023-03-01T03:22:46;11.18;;;7.53;;
57778;SDS011;43608;49.486;9.640;2023-03-01T03:23:20;10.05;;;7.53;;
57778;SDS011;43608;49.486;9.640;2023-03-01T03:23:51;11.55;;;7.30;;